sensor_id;sensor_type;location;lat;lon;timestamp;temperature;humidity
22418;DHT22;11376;50.932;4.442;2023-05-10T00:01:24;12.90;99.90
22418;DHT22;11376;50.932;4.442;2023-05-10T00:03:50;12.90;99.90
22418;DHT22;11376;50.932;4.442;2023-05-10T00:06:15;12.90;99.90
22418;DHT22;11376;50.932;4.442;2023-05-10T00:08:41;12.90;99.90
22418;DHT22;11376;50.932;4.442;2023-05-10T00:11:06;12.90;99.90
22418;DHT22;11376;50.932;4.442;2023-05-10T00:13:32;12.90;99.90
22418;DHT22;11376;50.932;4.442;2023-05-10T00:15:57;12.90;99.90
22418;DHT22;11376;50.932;4.442;2023-05-10T00:18:23;12.90;99.90
22418;DHT22;11376;50.932;4.442;2023-05-10T00:20:48;12.90;99.90
22418;DHT22;11376;50.932;4.442;2023-05-10T00:23:14;12.90;99.90
22418;DHT22;11376;50.932;4.442;2023-05-10T00:25:40;12.90;99.90
22418;DHT22;11376;50.932;4.442;2023-05-10T00:28:05;12.90;99.90
22418;DHT22;11376;50.932;4.442;2023-05-10T00:30:31;13.00;99.90
22418;DHT22;11376;50.932;4.442;2023-05-10T00:32:56;12.90;99.90
22418;DHT22;11376;50.932;4.442;2023-05-10T00:35:22;12.90;99.90
22418;DHT22;11376;50.932;4.442;2023-05-10T00:37:47;13.00;99.90
22418;DHT22;11376;50.932;4.442;2023-05-10T00:40:13;13.00;99.90
22418;DHT22;11376;50.932;4.442;2023-05-10T00:42:38;13.00;99.90
22418;DHT22;11376;50.932;4.442;2023-05-10T00:45:04;13.00;99.90
22418;DHT22;11376;50.932;4.442;2023-05-10T00:47:30;13.00;99.90
22418;DHT22;11376;50.932;4.442;2023-05-10T00:49:56;13.00;99.90
22418;DHT22;11376;50.932;4.442;2023-05-10T00:52:22;13.00;99.90
22418;DHT22;11376;50.932;4.442;2023-05-10T00:54:50;12.90;99.90
22418;DHT22;11376;50.932;4.442;2023-05-10T00:57:15;12.90;99.90
22418;DHT22;11376;50.932;4.442;2023-05-10T00:59:41;12.90;99.90
22418;DHT22;11376;50.932;4.442;2023-05-10T01:02:06;12.90;99.90
22418;DHT22;11376;50.932;4.442;2023-05-10T01:04:32;12.90;99.90
22418;DHT22;11376;50.932;4.442;2023-05-10T01:06:58;12.90;99.90
22418;DHT22;11376;50.932;4.442;2023-05-10T01:09:23;12.90;99.90
22418;DHT22;11376;50.932;4.442;2023-05-10T01:11:51;12.90;99.90
22418;DHT22;11376;50.932;4.442;2023-05-10T01:14:18;12.90;99.90
22418;DHT22;11376;50.932;4.442;2023-05-10T01:16:44;12.90;99.90
22418;DHT22;11376;50.932;4.442;2023-05-10T01:19:16;12.90;99.90
22418;DHT22;11376;50.932;4.442;2023-05-10T01:21:56;12.90;99.90
22418;DHT22;11376;50.932;4.442;2023-05-10T01:24:32;12.90;99.90
22418;DHT22;11376;50.932;4.442;2023-05-10T01:29:59;12.90;99.90
22418;DHT22;11376;50.932;4.442;2023-05-10T01:37:45;12.90;99.90
22418;DHT22;11376;50.932;4.442;2023-05-10T01:40:17;12.90;99.90
22418;DHT22;11376;50.932;4.442;2023-05-10T01:42:49;12.90;99.90
22418;DHT22;11376;50.932;4.442;2023-05-10T01:45:32;12.90;99.90
22418;DHT22;11376;50.932;4.442;2023-05-10T01:48:08;12.90;99.90
22418;DHT22;11376;50.932;4.442;2023-05-10T01:50:35;12.90;99.90
22418;DHT22;11376;50.932;4.442;2023-05-10T01:53:01;12.90;99.90
22418;DHT22;11376;50.932;4.442;2023-05-10T01:55:32;12.90;99.90
22418;DHT22;11376;50.932;4.442;2023-05-10T01:58:02;12.90;99.90
22418;DHT22;11376;50.932;4.442;2023-05-10T02:00:29;12.80;99.90
22418;DHT22;11376;50.932;4.442;2023-05-10T02:02:56;12.90;99.90
22418;DHT22;11376;50.932;4.442;2023-05-10T02:05:22;12.80;99.90
22418;DHT22;11376;50.932;4.442;2023-05-10T02:07:48;12.80;99.90
22418;DHT22;11376;50.932;4.442;2023-05-10T02:10:14;12.80;99.90
22418;DHT22;11376;50.932;4.442;2023-05-10T02:12:41;12.90;99.90
22418;DHT22;11376;50.932;4.442;2023-05-10T02:15:07;12.90;99.90
22418;DHT22;11376;50.932;4.442;2023-05-10T02:17:34;12.90;99.90
22418;DHT22;11376;50.932;4.442;2023-05-10T02:20:01;12.90;99.90
22418;DHT22;11376;50.932;4.442;2023-05-10T02:22:27;12.90;99.90
22418;DHT22;11376;50.932;4.442;2023-05-10T02:24:53;12.90;99.90
22418;DHT22;11376;50.932;4.442;2023-05-10T02:27:20;12.90;99.90
22418;DHT22;11376;50.932;4.442;2023-05-10T02:29:46;12.90;99.90
22418;DHT22;11376;50.932;4.442;2023-05-10T02:32:11;12.90;99.90
22418;DHT22;11376;50.932;4.442;2023-05-10T02:34:37;12.90;99.90
22418;DHT22;11376;50.932;4.442;2023-05-10T02:37:03;12.90;99.90
22418;DHT22;11376;50.932;4.442;2023-05-10T02:39:31;12.90;99.90
22418;DHT22;11376;50.932;4.442;2023-05-10T02:41:56;12.90;99.90
22418;DHT22;11376;50.932;4.442;2023-05-10T02:44:22;12.90;99.90
22418;DHT22;11376;50.932;4.442;2023-05-10T02:46:48;12.90;99.90
22418;DHT22;11376;50.932;4.442;2023-05-10T02:49:15;12.90;99.90
22418;DHT22;11376;50.932;4.442;2023-05-10T02:51:41;12.90;99.90
22418;DHT22;11376;50.932;4.442;2023-05-10T02:54:12;13.00;99.90
22418;DHT22;11376;50.932;4.442;2023-05-10T02:56:45;13.00;99.90
22418;DHT22;11376;50.932;4.442;2023-05-10T02:59:12;13.10;99.90
22418;DHT22;11376;50.932;4.442;2023-05-10T03:01:37;13.20;99.90
22418;DHT22;11376;50.932;4.442;2023-05-10T03:04:03;13.20;99.90
22418;DHT22;11376;50.932;4.442;2023-05-10T03:06:28;13.20;99.90
22418;DHT22;11376;50.932;4.442;2023-05-10T03:08:54;13.30;99.90
22418;DHT22;11376;50.932;4.442;2023-05-10T03:11:26;13.10;99.90
22418;DHT22;11376;50.932;4.442;2023-05-10T03:16:27;13.10;99.90
22418;DHT22;11376;50.932;4.442;2023-05-10T03:18:55;13.00;99.90
22418;DHT22;11376;50.932;4.442;2023-05-10T03:21:21;13.00;99.90
22418;DHT22;11376;50.932;4.442;2023-05-10T03:23:53;12.90;99.90
22418;DHT22;11376;50.932;4.442;2023-05-10T03:26:23;12.90;99.90
22418;DHT22;11376;50.932;4.442;2023-05-10T03:28:50;13.00;99.90
22418;DHT22;11376;50.932;4.442;2023-05-10T03:31:17;13.10;99.90
22418;DHT22;11376;50.932;4.442;2023-05-10T03:33:46;13.10;99.90
22418;DHT22;11376;50.932;4.442;2023-05-10T03:36:12;13.00;99.90
22418;DHT22;11376;50.932;4.442;2023-05-10T03:38:38;12.90;99.90
22418;DHT22;11376;50.932;4.442;2023-05-10T03:41:04;13.00;99.90
22418;DHT22;11376;50.932;4.442;2023-05-10T03:43:29;13.00;99.90
22418;DHT22;11376;50.932;4.442;2023-05-10T03:45:55;13.00;99.90
22418;DHT22;11376;50.932;4.442;2023-05-10T03:48:20;13.00;99.90
22418;DHT22;11376;50.932;4.442;2023-05-10T03:50:45;12.90;99.90
22418;DHT22;11376;50.932;4.442;2023-05-10T03:53:11;12.80;99.90
22418;DHT22;11376;50.932;4.442;2023-05-10T03:55:37;12.70;99.90
22418;DHT22;11376;50.932;4.442;2023-05-10T03:58:03;12.60;99.90
22418;DHT22;11376;50.932;4.442;2023-05-10T04:00:28;12.60;99.90
22418;DHT22;11376;50.932;4.442;2023-05-10T04:02:54;12.70;99.90
22418;DHT22;11376;50.932;4.442;2023-05-10T04:05:19;12.60;99.90
22418;DHT22;11376;50.932;4.442;2023-05-10T04:07:45;12.60;99.90
22418;DHT22;11376;50.932;4.442;2023-05-10T04:10:12;12.50;99.90
22418;DHT22;11376;50.932;4.442;2023-05-10T04:12:37;12.60;99.90
22418;DHT22;11376;50.932;4.442;2023-05-10T04:15:06;12.60;99.90
22418;DHT22;11376;50.932;4.442;2023-05-10T04:17:32;12.60;99.90
22418;DHT22;11376;50.932;4.442;2023-05-10T04:19:57;12.70;99.90
22418;DHT22;11376;50.932;4.442;2023-05-10T04:22:23;12.70;99.90
22418;DHT22;11376;50.932;4.442;2023-05-10T04:24:48;12.80;99.90
22418;DHT22;11376;50.932;4.442;2023-05-10T04:27:14;12.90;99.90
22418;DHT22;11376;50.932;4.442;2023-05-10T04:29:39;12.90;99.90
22418;DHT22;11376;50.932;4.442;2023-05-10T04:32:05;12.80;99.90
22418;DHT22;11376;50.932;4.442;2023-05-10T04:34:30;12.80;99.90
22418;DHT22;11376;50.932;4.442;2023-05-10T04:36:56;12.80;99.90
22418;DHT22;11376;50.932;4.442;2023-05-10T04:39:21;12.80;99.90
22418;DHT22;11376;50.932;4.442;2023-05-10T04:41:47;12.90;99.90
22418;DHT22;11376;50.932;4.442;2023-05-10T04:44:12;12.80;99.90
22418;DHT22;11376;50.932;4.442;2023-05-10T04:46:38;12.80;99.90
22418;DHT22;11376;50.932;4.442;2023-05-10T04:49:03;12.80;99.90
22418;DHT22;11376;50.932;4.442;2023-05-10T04:51:29;12.80;99.90
22418;DHT22;11376;50.932;4.442;2023-05-10T04:53:54;12.80;99.90
22418;DHT22;11376;50.932;4.442;2023-05-10T04:56:20;12.90;99.90
22418;DHT22;11376;50.932;4.442;2023-05-10T04:58:47;12.90;99.90
22418;DHT22;11376;50.932;4.442;2023-05-10T05:01:12;12.90;99.90
22418;DHT22;11376;50.932;4.442;2023-05-10T05:03:38;13.00;99.90
22418;DHT22;11376;50.932;4.442;2023-05-10T05:06:03;12.90;99.90
22418;DHT22;11376;50.932;4.442;2023-05-10T05:08:29;12.90;99.90
22418;DHT22;11376;50.932;4.442;2023-05-10T05:10:54;12.90;99.90
22418;DHT22;11376;50.932;4.442;2023-05-10T05:13:20;12.90;99.90
22418;DHT22;11376;50.932;4.442;2023-05-10T05:15:45;12.90;99.90
22418;DHT22;11376;50.932;4.442;2023-05-10T05:18:11;12.90;99.90
22418;DHT22;11376;50.932;4.442;2023-05-10T05:20:36;13.00;99.90
22418;DHT22;11376;50.932;4.442;2023-05-10T05:23:02;13.00;99.90
22418;DHT22;11376;50.932;4.442;2023-05-10T05:25:27;12.90;99.90
22418;DHT22;11376;50.932;4.442;2023-05-10T05:27:53;12.90;99.90
22418;DHT22;11376;50.932;4.442;2023-05-10T05:30:18;12.90;99.90
22418;DHT22;11376;50.932;4.442;2023-05-10T05:32:44;12.90;99.90
22418;DHT22;11376;50.932;4.442;2023-05-10T05:35:10;12.90;99.90
22418;DHT22;11376;50.932;4.442;2023-05-10T05:37:36;12.80;99.90
22418;DHT22;11376;50.932;4.442;2023-05-10T05:40:02;12.90;99.90
22418;DHT22;11376;50.932;4.442;2023-05-10T05:42:28;12.90;99.90
22418;DHT22;11376;50.932;4.442;2023-05-10T05:44:53;13.00;99.90
22418;DHT22;11376;50.932;4.442;2023-05-10T05:47:19;13.00;99.90
22418;DHT22;11376;50.932;4.442;2023-05-10T05:49:44;13.00;99.90
22418;DHT22;11376;50.932;4.442;2023-05-10T05:52:13;13.00;99.90
22418;DHT22;11376;50.932;4.442;2023-05-10T05:54:38;13.20;99.90
22418;DHT22;11376;50.932;4.442;2023-05-10T05:57:04;13.30;99.90
22418;DHT22;11376;50.932;4.442;2023-05-10T05:59:30;13.40;99.90
22418;DHT22;11376;50.932;4.442;2023-05-10T06:01:55;13.50;99.90
22418;DHT22;11376;50.932;4.442;2023-05-10T06:04:21;13.50;99.90
22418;DHT22;11376;50.932;4.442;2023-05-10T06:06:46;13.50;99.90
22418;DHT22;11376;50.932;4.442;2023-05-10T06:09:12;13.30;99.90
22418;DHT22;11376;50.932;4.442;2023-05-10T06:11:37;13.40;99.90
22418;DHT22;11376;50.932;4.442;2023-05-10T06:14:03;13.50;99.90
22418;DHT22;11376;50.932;4.442;2023-05-10T06:16:36;13.50;99.90
22418;DHT22;11376;50.932;4.442;2023-05-10T06:19:02;13.50;99.90
22418;DHT22;11376;50.932;4.442;2023-05-10T06:21:27;13.80;99.90
22418;DHT22;11376;50.932;4.442;2023-05-10T06:23:53;13.80;99.90
22418;DHT22;11376;50.932;4.442;2023-05-10T06:26:18;13.80;99.90
22418;DHT22;11376;50.932;4.442;2023-05-10T06:28:44;13.90;99.90
22418;DHT22;11376;50.932;4.442;2023-05-10T06:31:09;14.10;99.90
22418;DHT22;11376;50.932;4.442;2023-05-10T06:33:37;14.10;99.90
22418;DHT22;11376;50.932;4.442;2023-05-10T06:36:02;14.30;99.90
22418;DHT22;11376;50.932;4.442;2023-05-10T06:38:28;14.30;99.90
22418;DHT22;11376;50.932;4.442;2023-05-10T06:40:53;14.20;99.90
22418;DHT22;11376;50.932;4.442;2023-05-10T06:43:19;14.40;99.90
22418;DHT22;11376;50.932;4.442;2023-05-10T06:45:45;14.40;99.90
22418;DHT22;11376;50.932;4.442;2023-05-10T06:48:10;14.50;99.90
22418;DHT22;11376;50.932;4.442;2023-05-10T06:50:36;14.50;99.90
22418;DHT22;11376;50.932;4.442;2023-05-10T06:53:01;14.40;99.90
22418;DHT22;11376;50.932;4.442;2023-05-10T06:55:27;14.30;99.90
22418;DHT22;11376;50.932;4.442;2023-05-10T06:57:52;14.30;99.90
22418;DHT22;11376;50.932;4.442;2023-05-10T07:00:18;14.40;99.90
22418;DHT22;11376;50.932;4.442;2023-05-10T07:02:44;14.40;99.90
22418;DHT22;11376;50.932;4.442;2023-05-10T07:05:09;14.50;99.90
22418;DHT22;11376;50.932;4.442;2023-05-10T07:07:35;14.60;99.90
22418;DHT22;11376;50.932;4.442;2023-05-10T07:10:01;14.60;99.90
22418;DHT22;11376;50.932;4.442;2023-05-10T07:12:26;14.80;99.90
22418;DHT22;11376;50.932;4.442;2023-05-10T07:14:52;14.60;99.90
22418;DHT22;11376;50.932;4.442;2023-05-10T07:17:17;14.70;99.90
22418;DHT22;11376;50.932;4.442;2023-05-10T07:19:43;14.50;99.90
22418;DHT22;11376;50.932;4.442;2023-05-10T07:22:09;14.10;99.90
22418;DHT22;11376;50.932;4.442;2023-05-10T07:24:34;14.00;99.90
22418;DHT22;11376;50.932;4.442;2023-05-10T07:27:00;13.90;99.90
22418;DHT22;11376;50.932;4.442;2023-05-10T07:29:25;14.30;99.90
22418;DHT22;11376;50.932;4.442;2023-05-10T07:31:51;13.90;99.90
22418;DHT22;11376;50.932;4.442;2023-05-10T07:34:16;13.90;99.90
22418;DHT22;11376;50.932;4.442;2023-05-10T07:36:42;13.70;99.90
22418;DHT22;11376;50.932;4.442;2023-05-10T07:39:07;13.70;99.90
22418;DHT22;11376;50.932;4.442;2023-05-10T07:41:33;13.70;99.90
22418;DHT22;11376;50.932;4.442;2023-05-10T07:43:58;13.70;99.90
22418;DHT22;11376;50.932;4.442;2023-05-10T07:46:24;13.70;99.90
22418;DHT22;11376;50.932;4.442;2023-05-10T07:48:49;13.80;99.90
22418;DHT22;11376;50.932;4.442;2023-05-10T07:51:15;13.70;99.90
22418;DHT22;11376;50.932;4.442;2023-05-10T07:53:40;13.80;99.90
22418;DHT22;11376;50.932;4.442;2023-05-10T07:56:23;14.10;99.90
22418;DHT22;11376;50.932;4.442;2023-05-10T07:58:50;14.00;99.90
22418;DHT22;11376;50.932;4.442;2023-05-10T08:01:16;14.00;99.90
22418;DHT22;11376;50.932;4.442;2023-05-10T08:03:41;13.90;99.90
22418;DHT22;11376;50.932;4.442;2023-05-10T08:06:07;13.70;99.90
22418;DHT22;11376;50.932;4.442;2023-05-10T08:08:32;13.60;99.90
22418;DHT22;11376;50.932;4.442;2023-05-10T08:10:58;13.60;99.90
22418;DHT22;11376;50.932;4.442;2023-05-10T08:13:23;13.60;99.90
22418;DHT22;11376;50.932;4.442;2023-05-10T08:15:49;13.70;99.90
22418;DHT22;11376;50.932;4.442;2023-05-10T08:18:14;13.60;99.90
22418;DHT22;11376;50.932;4.442;2023-05-10T08:20:40;13.60;99.90
22418;DHT22;11376;50.932;4.442;2023-05-10T08:23:05;13.80;99.90
22418;DHT22;11376;50.932;4.442;2023-05-10T08:25:31;13.70;99.90
22418;DHT22;11376;50.932;4.442;2023-05-10T08:27:57;13.40;99.90
22418;DHT22;11376;50.932;4.442;2023-05-10T08:30:22;13.20;99.90
22418;DHT22;11376;50.932;4.442;2023-05-10T08:32:48;13.20;99.90
22418;DHT22;11376;50.932;4.442;2023-05-10T08:35:13;13.20;99.90
22418;DHT22;11376;50.932;4.442;2023-05-10T08:37:39;13.20;99.90
22418;DHT22;11376;50.932;4.442;2023-05-10T08:40:04;13.40;99.90
22418;DHT22;11376;50.932;4.442;2023-05-10T08:42:30;13.40;99.90
22418;DHT22;11376;50.932;4.442;2023-05-10T08:44:59;13.40;99.90
22418;DHT22;11376;50.932;4.442;2023-05-10T08:47:24;13.50;99.90
22418;DHT22;11376;50.932;4.442;2023-05-10T08:49:50;13.50;99.90
22418;DHT22;11376;50.932;4.442;2023-05-10T08:52:16;13.50;99.90
22418;DHT22;11376;50.932;4.442;2023-05-10T08:54:42;13.40;99.90
22418;DHT22;11376;50.932;4.442;2023-05-10T08:57:09;13.50;99.90
22418;DHT22;11376;50.932;4.442;2023-05-10T08:59:35;13.60;99.90
22418;DHT22;11376;50.932;4.442;2023-05-10T09:02:00;13.70;99.90
22418;DHT22;11376;50.932;4.442;2023-05-10T09:04:27;13.70;99.90
22418;DHT22;11376;50.932;4.442;2023-05-10T09:06:52;13.60;99.90
22418;DHT22;11376;50.932;4.442;2023-05-10T09:09:18;13.50;99.90
22418;DHT22;11376;50.932;4.442;2023-05-10T09:11:44;13.50;99.90
22418;DHT22;11376;50.932;4.442;2023-05-10T09:14:10;13.60;99.90
22418;DHT22;11376;50.932;4.442;2023-05-10T09:16:37;13.50;99.90
22418;DHT22;11376;50.932;4.442;2023-05-10T09:19:03;13.40;99.90
22418;DHT22;11376;50.932;4.442;2023-05-10T09:21:28;13.50;99.90
22418;DHT22;11376;50.932;4.442;2023-05-10T09:23:55;13.40;99.90
22418;DHT22;11376;50.932;4.442;2023-05-10T09:26:24;13.40;99.90
22418;DHT22;11376;50.932;4.442;2023-05-10T09:28:50;13.30;99.90
22418;DHT22;11376;50.932;4.442;2023-05-10T09:31:16;13.40;99.90
22418;DHT22;11376;50.932;4.442;2023-05-10T09:33:45;13.50;99.90
22418;DHT22;11376;50.932;4.442;2023-05-10T09:36:11;13.60;99.90
22418;DHT22;11376;50.932;4.442;2023-05-10T09:38:50;13.60;99.90
22418;DHT22;11376;50.932;4.442;2023-05-10T09:41:19;13.60;99.90
22418;DHT22;11376;50.932;4.442;2023-05-10T09:43:45;13.50;99.90
22418;DHT22;11376;50.932;4.442;2023-05-10T09:46:11;13.60;99.90
22418;DHT22;11376;50.932;4.442;2023-05-10T09:48:40;13.60;99.90
22418;DHT22;11376;50.932;4.442;2023-05-10T09:51:06;13.60;99.90
22418;DHT22;11376;50.932;4.442;2023-05-10T09:53:32;13.50;99.90
22418;DHT22;11376;50.932;4.442;2023-05-10T09:55:57;13.50;99.90
22418;DHT22;11376;50.932;4.442;2023-05-10T09:58:23;13.60;99.90
22418;DHT22;11376;50.932;4.442;2023-05-10T10:00:48;13.70;99.90
22418;DHT22;11376;50.932;4.442;2023-05-10T10:03:19;13.80;99.90
22418;DHT22;11376;50.932;4.442;2023-05-10T10:05:45;13.80;99.90
22418;DHT22;11376;50.932;4.442;2023-05-10T10:08:11;13.70;99.90
22418;DHT22;11376;50.932;4.442;2023-05-10T10:10:37;13.80;99.90
22418;DHT22;11376;50.932;4.442;2023-05-10T10:13:05;13.60;99.90
22418;DHT22;11376;50.932;4.442;2023-05-10T10:15:31;13.60;99.90
22418;DHT22;11376;50.932;4.442;2023-05-10T10:17:57;13.60;99.90
22418;DHT22;11376;50.932;4.442;2023-05-10T10:20:23;13.50;99.90
22418;DHT22;11376;50.932;4.442;2023-05-10T10:22:50;13.60;99.90
22418;DHT22;11376;50.932;4.442;2023-05-10T10:25:16;13.50;99.90
22418;DHT22;11376;50.932;4.442;2023-05-10T10:27:54;13.50;99.90
22418;DHT22;11376;50.932;4.442;2023-05-10T10:30:37;13.50;99.90
22418;DHT22;11376;50.932;4.442;2023-05-10T10:35:48;13.60;99.90
22418;DHT22;11376;50.932;4.442;2023-05-10T10:38:15;13.50;99.90
22418;DHT22;11376;50.932;4.442;2023-05-10T10:40:40;13.50;99.90
22418;DHT22;11376;50.932;4.442;2023-05-10T10:43:27;13.50;99.90
22418;DHT22;11376;50.932;4.442;2023-05-10T10:48:37;13.70;99.90
22418;DHT22;11376;50.932;4.442;2023-05-10T10:51:02;13.70;99.90
22418;DHT22;11376;50.932;4.442;2023-05-10T10:53:28;13.80;99.90
22418;DHT22;11376;50.932;4.442;2023-05-10T10:58:33;13.80;99.90
22418;DHT22;11376;50.932;4.442;2023-05-10T11:01:15;13.80;99.90
22418;DHT22;11376;50.932;4.442;2023-05-10T11:03:41;13.80;99.90
22418;DHT22;11376;50.932;4.442;2023-05-10T11:06:28;13.80;99.90
22418;DHT22;11376;50.932;4.442;2023-05-10T11:08:54;13.80;99.90
22418;DHT22;11376;50.932;4.442;2023-05-10T11:11:20;13.80;99.90
22418;DHT22;11376;50.932;4.442;2023-05-10T11:13:46;13.80;99.90
22418;DHT22;11376;50.932;4.442;2023-05-10T11:18:52;13.90;99.90
22418;DHT22;11376;50.932;4.442;2023-05-10T11:21:18;14.00;99.90
22418;DHT22;11376;50.932;4.442;2023-05-10T11:23:47;14.00;99.90
22418;DHT22;11376;50.932;4.442;2023-05-10T11:26:13;14.00;99.90
22418;DHT22;11376;50.932;4.442;2023-05-10T11:28:46;14.00;99.90
22418;DHT22;11376;50.932;4.442;2023-05-10T11:31:15;14.10;99.90
22418;DHT22;11376;50.932;4.442;2023-05-10T11:33:45;14.00;99.90
22418;DHT22;11376;50.932;4.442;2023-05-10T11:36:11;14.00;99.90
22418;DHT22;11376;50.932;4.442;2023-05-10T11:38:37;14.20;99.90
22418;DHT22;11376;50.932;4.442;2023-05-10T11:41:02;14.10;99.90
22418;DHT22;11376;50.932;4.442;2023-05-10T11:43:28;14.30;99.90
22418;DHT22;11376;50.932;4.442;2023-05-10T11:45:55;14.60;99.90
22418;DHT22;11376;50.932;4.442;2023-05-10T11:48:21;14.60;99.90
22418;DHT22;11376;50.932;4.442;2023-05-10T11:50:49;14.80;99.90
22418;DHT22;11376;50.932;4.442;2023-05-10T11:53:15;14.80;99.90
22418;DHT22;11376;50.932;4.442;2023-05-10T11:55:40;14.80;99.90
22418;DHT22;11376;50.932;4.442;2023-05-10T11:58:05;14.80;99.90
22418;DHT22;11376;50.932;4.442;2023-05-10T12:00:31;14.70;99.90
22418;DHT22;11376;50.932;4.442;2023-05-10T12:02:57;14.70;99.90
22418;DHT22;11376;50.932;4.442;2023-05-10T12:05:23;14.80;99.90
22418;DHT22;11376;50.932;4.442;2023-05-10T12:07:49;14.90;99.90
22418;DHT22;11376;50.932;4.442;2023-05-10T12:10:14;14.90;99.90
22418;DHT22;11376;50.932;4.442;2023-05-10T12:12:44;14.90;99.90
22418;DHT22;11376;50.932;4.442;2023-05-10T12:15:10;14.80;99.90
22418;DHT22;11376;50.932;4.442;2023-05-10T12:17:37;14.90;99.90
22418;DHT22;11376;50.932;4.442;2023-05-10T12:20:18;14.90;99.90
22418;DHT22;11376;50.932;4.442;2023-05-10T12:22:52;15.10;99.90
22418;DHT22;11376;50.932;4.442;2023-05-10T12:25:18;15.30;99.90
22418;DHT22;11376;50.932;4.442;2023-05-10T12:27:50;15.30;99.90
22418;DHT22;11376;50.932;4.442;2023-05-10T12:30:26;15.30;99.90
22418;DHT22;11376;50.932;4.442;2023-05-10T12:32:52;15.10;99.90
22418;DHT22;11376;50.932;4.442;2023-05-10T12:35:18;15.00;99.90
22418;DHT22;11376;50.932;4.442;2023-05-10T12:37:47;15.30;99.90
22418;DHT22;11376;50.932;4.442;2023-05-10T12:40:13;15.70;99.90
22418;DHT22;11376;50.932;4.442;2023-05-10T12:42:38;16.10;99.90
22418;DHT22;11376;50.932;4.442;2023-05-10T12:45:05;16.20;99.90
22418;DHT22;11376;50.932;4.442;2023-05-10T12:47:31;16.40;99.90
22418;DHT22;11376;50.932;4.442;2023-05-10T12:49:57;16.40;99.90
22418;DHT22;11376;50.932;4.442;2023-05-10T12:52:22;16.80;99.90
22418;DHT22;11376;50.932;4.442;2023-05-10T12:54:48;17.40;99.90
22418;DHT22;11376;50.932;4.442;2023-05-10T12:57:14;17.90;99.90
22418;DHT22;11376;50.932;4.442;2023-05-10T12:59:40;18.40;99.90
22418;DHT22;11376;50.932;4.442;2023-05-10T13:02:06;18.70;99.90
22418;DHT22;11376;50.932;4.442;2023-05-10T13:04:31;19.30;99.90
22418;DHT22;11376;50.932;4.442;2023-05-10T13:06:57;19.30;99.90
22418;DHT22;11376;50.932;4.442;2023-05-10T13:09:24;19.00;99.90
22418;DHT22;11376;50.932;4.442;2023-05-10T13:11:50;19.10;99.90
22418;DHT22;11376;50.932;4.442;2023-05-10T13:14:16;18.70;99.90
22418;DHT22;11376;50.932;4.442;2023-05-10T13:16:41;18.40;99.90
22418;DHT22;11376;50.932;4.442;2023-05-10T13:19:07;19.00;99.90
22418;DHT22;11376;50.932;4.442;2023-05-10T13:21:32;19.10;99.90
22418;DHT22;11376;50.932;4.442;2023-05-10T13:23:58;19.60;99.90
22418;DHT22;11376;50.932;4.442;2023-05-10T13:26:24;19.90;99.90
22418;DHT22;11376;50.932;4.442;2023-05-10T13:28:50;19.80;99.90
22418;DHT22;11376;50.932;4.442;2023-05-10T13:31:16;19.10;99.90
22418;DHT22;11376;50.932;4.442;2023-05-10T13:33:42;18.90;99.90
22418;DHT22;11376;50.932;4.442;2023-05-10T13:36:07;19.30;99.90
22418;DHT22;11376;50.932;4.442;2023-05-10T13:38:33;20.30;99.90
22418;DHT22;11376;50.932;4.442;2023-05-10T13:40:58;21.20;99.90
22418;DHT22;11376;50.932;4.442;2023-05-10T13:43:24;21.20;99.90
22418;DHT22;11376;50.932;4.442;2023-05-10T13:45:50;21.60;99.90
22418;DHT22;11376;50.932;4.442;2023-05-10T13:48:15;21.10;99.90
22418;DHT22;11376;50.932;4.442;2023-05-10T13:50:42;20.20;99.90
22418;DHT22;11376;50.932;4.442;2023-05-10T13:53:08;20.40;99.90
22418;DHT22;11376;50.932;4.442;2023-05-10T13:55:34;20.20;99.90
22418;DHT22;11376;50.932;4.442;2023-05-10T13:57:59;20.10;99.90
22418;DHT22;11376;50.932;4.442;2023-05-10T14:00:25;20.10;99.90
22418;DHT22;11376;50.932;4.442;2023-05-10T14:02:50;19.80;99.90
22418;DHT22;11376;50.932;4.442;2023-05-10T14:05:16;20.00;99.90
22418;DHT22;11376;50.932;4.442;2023-05-10T14:07:42;19.80;99.90
22418;DHT22;11376;50.932;4.442;2023-05-10T14:10:07;19.30;99.90
22418;DHT22;11376;50.932;4.442;2023-05-10T14:12:33;18.50;99.90
22418;DHT22;11376;50.932;4.442;2023-05-10T14:14:58;18.20;99.90
22418;DHT22;11376;50.932;4.442;2023-05-10T14:17:24;17.90;99.90
22418;DHT22;11376;50.932;4.442;2023-05-10T14:19:49;18.20;99.90
22418;DHT22;11376;50.932;4.442;2023-05-10T14:22:15;18.50;99.90
22418;DHT22;11376;50.932;4.442;2023-05-10T14:24:40;18.70;99.90
22418;DHT22;11376;50.932;4.442;2023-05-10T14:27:06;18.90;99.90
22418;DHT22;11376;50.932;4.442;2023-05-10T14:29:32;18.30;99.90
22418;DHT22;11376;50.932;4.442;2023-05-10T14:31:58;18.00;99.90
22418;DHT22;11376;50.932;4.442;2023-05-10T14:34:23;17.50;99.90
22418;DHT22;11376;50.932;4.442;2023-05-10T14:36:49;17.30;99.90
22418;DHT22;11376;50.932;4.442;2023-05-10T14:39:15;17.20;99.90
22418;DHT22;11376;50.932;4.442;2023-05-10T14:41:40;17.50;99.90
22418;DHT22;11376;50.932;4.442;2023-05-10T14:44:08;17.00;99.90
22418;DHT22;11376;50.932;4.442;2023-05-10T14:46:33;16.80;99.90
22418;DHT22;11376;50.932;4.442;2023-05-10T14:48:59;16.70;99.90
22418;DHT22;11376;50.932;4.442;2023-05-10T14:51:25;17.00;99.90
22418;DHT22;11376;50.932;4.442;2023-05-10T14:53:50;16.70;99.90
22418;DHT22;11376;50.932;4.442;2023-05-10T14:56:16;16.50;99.90
22418;DHT22;11376;50.932;4.442;2023-05-10T14:58:41;16.50;99.90
22418;DHT22;11376;50.932;4.442;2023-05-10T15:01:07;16.30;99.90
22418;DHT22;11376;50.932;4.442;2023-05-10T15:03:32;16.50;99.90
22418;DHT22;11376;50.932;4.442;2023-05-10T15:05:58;16.40;99.90
22418;DHT22;11376;50.932;4.442;2023-05-10T15:08:23;16.10;99.90
22418;DHT22;11376;50.932;4.442;2023-05-10T15:10:50;16.20;99.90
22418;DHT22;11376;50.932;4.442;2023-05-10T15:13:15;16.10;99.90
22418;DHT22;11376;50.932;4.442;2023-05-10T15:15:41;16.00;99.90
22418;DHT22;11376;50.932;4.442;2023-05-10T15:18:06;15.70;99.90
22418;DHT22;11376;50.932;4.442;2023-05-10T15:20:32;15.50;99.90
22418;DHT22;11376;50.932;4.442;2023-05-10T15:22:57;15.30;99.90
22418;DHT22;11376;50.932;4.442;2023-05-10T15:25:23;15.30;99.90
22418;DHT22;11376;50.932;4.442;2023-05-10T15:27:49;15.30;99.90
22418;DHT22;11376;50.932;4.442;2023-05-10T15:30:14;15.30;99.90
22418;DHT22;11376;50.932;4.442;2023-05-10T15:32:40;15.20;99.90
22418;DHT22;11376;50.932;4.442;2023-05-10T15:35:07;15.10;99.90
22418;DHT22;11376;50.932;4.442;2023-05-10T15:37:32;15.00;99.90
22418;DHT22;11376;50.932;4.442;2023-05-10T15:39:58;14.90;99.90
22418;DHT22;11376;50.932;4.442;2023-05-10T15:42:31;15.00;99.90
22418;DHT22;11376;50.932;4.442;2023-05-10T15:44:57;14.90;99.90
22418;DHT22;11376;50.932;4.442;2023-05-10T15:47:22;14.90;99.90